Aérodrome :
LOGIN :

S'inscrire | Disclaimer

   EN    FR    IT 

 










Légende :    VFR   VFR Marginal   IFR   IFR Intensif   IFR Très Intensif
Visi : 
Plafond : 
>= 8 km
>= 3000ft
5 à 8 km
1000 à 3000 ft
1500m à 5 km
500 à 1000 ft
800 à 1500m
200 à 500 ft
< 800m
< 200 ft
Symboles :   Orages  Brouillard  Fortes neiges  Fortes précipitations  Vent > 20 kt
SIGMETs :   Divers  Orages  Givrage  Turbulence  Onde Orograph.  Cendres Volcan.







- Altitude de l'aérodrome : 14 ft
- Code IATA : BRE


EDDW - Bremen Neuenland

DERNIER METAR :
  • 220850Z 07004KT 9999 -SN FEW025 BKN050 M00/M03 Q1027 NOSIG

METARs EXPIRÉS :
  • 220820Z VRB02KT 9999 FEW025 BKN050 M01/M02 Q1027 NOSIG
  • 220750Z VRB02KT 9999 FEW040 BKN055 M01/M03 Q1027 NOSIG
  • 220720Z 06004KT 9999 FEW040 BKN055 M01/M03 Q1027 NOSIG
  • 220650Z 05003KT CAVOK M02/M03 Q1027 NOSIG
  • 220620Z 05004KT CAVOK M02/M04 Q1027 NOSIG

TAF TAF EDDW
Valide du 22 à 06h jusqu'au 23 à 06h UTC


220500Z 2206/2306 06006KT 9999 BKN020
PROB30
TEMPO 2209/2218 4000 -SHSN BKN012CB
Pas de NOTAMs connus pour ce terrain.



MET'MAP, la Météo Aéronautique d'un coup d'oeil ! - Copyright ORBIFLY Décembre 2007 - Disclaimer

ORBIFLY MET'MAP TEAM :

Programmation & Développement : Alexandra Zaïnal
Conception & Développement : Baudouin d'Aumeries
Co-Programmation & Développement : Marc-Olivier Méhu
Soutien technique & logistique : Manuel Goepfert

Contact : metmap@orbifly.com




SOURCES & CREDITS :

   NOAA